Time;durP1;ratioP1;P1;durP2;ratioP2;P2;SDS_P1;SDS_P2;PMS_P1;PMS_P2;Temp;Humidity;BMP_temperature;BMP_pressure;BME280_temperature;BME280_humidity;BME280_pressure;Samples;Min_cycle;Max_cycle;Signal;HPM_P1;HPM_P2
2022/12/22 03:25:54;;;;;;;;;5.25;1.75;;;;;13.99;72.46;100496.97;2413322;28;45355;-76
2022/12/22 03:27:05;;;;;;;;;4.00;3.00;;;;;13.99;72.37;100512.81;2413235;28;46386;-76
2022/12/22 03:28:15;;;;;;;;;4.75;2.00;;;;;14.00;72.53;100511.88;2412065;28;45275;-76
2022/12/22 03:29:25;;;;;;;;;2.50;1.00;;;;;14.00;72.05;100511.88;2412982;28;45362;-76
2022/12/22 03:30:37;;;;;;;;;3.00;3.00;;;;;14.01;72.39;100510.94;2402921;28;45218;-76
2022/12/22 03:31:47;;;;;;;;;2.00;0.50;;;;;14.01;72.39;100508.28;2405642;28;46417;-76
2022/12/22 03:32:58;;;;;;;;;3.00;1.75;;;;;14.02;72.54;100520.59;2413003;28;45154;-75
2022/12/22 03:34:08;;;;;;;;;4.50;0.25;;;;;14.02;72.35;100510.88;2402566;28;48172;-75
2022/12/22 03:35:18;;;;;;;;;2.75;0.00;;;;;14.04;72.21;100526.66;2405793;28;45313;-75
2022/12/22 03:36:29;;;;;;;;;5.00;2.00;;;;;14.04;72.50;100524.88;2413143;28;45360;-75
2022/12/22 03:37:39;;;;;;;;;1.50;0.50;;;;;14.06;72.10;100532.69;2401526;28;45449;-75
2022/12/22 03:38:49;;;;;;;;;5.25;1.75;;;;;14.06;72.09;100543.28;2405762;28;46589;-75
2022/12/22 03:40:00;;;;;;;;;2.75;2.00;;;;;14.05;71.99;100538.94;2413106;28;44680;-75
2022/12/22 03:46:28;;;;;;;;;4.00;2.25;;;;;14.06;72.35;100538.84;2412917;28;46305;-75
2022/12/22 03:47:07;;;;;;;;;4.25;0.50;;;;;14.05;72.13;100545.06;2412817;28;45184;-75
2022/12/22 03:48:17;;;;;;;;;2.50;1.75;;;;;14.05;72.08;100536.28;2411966;28;45472;-75
2022/12/22 03:49:28;;;;;;;;;1.75;1.00;;;;;14.04;72.09;100551.28;2412897;28;45253;-75
2022/12/22 03:50:38;;;;;;;;;5.50;2.00;;;;;14.05;71.86;100549.50;2402745;28;44702;-75
2022/12/22 03:51:50;;;;;;;;;1.00;1.00;;;;;14.04;71.83;100547.78;2405705;28;45357;-75
2022/12/22 03:53:00;;;;;;;;;4.75;2.75;;;;;14.05;72.07;100552.16;2402734;28;45362;-75
2022/12/22 03:54:13;;;;;;;;;2.75;1.00;;;;;14.07;72.12;100535.25;2405667;28;46278;-75
2022/12/22 03:55:24;;;;;;;;;2.00;0.00;;;;;14.07;72.03;100542.34;2413086;28;45247;-75
2022/12/22 03:56:34;;;;;;;;;5.50;1.00;;;;;14.06;72.00;100546.78;2413065;28;45183;-75
2022/12/22 03:57:44;;;;;;;;;1.00;0.75;;;;;14.07;71.71;100550.28;2411624;28;44769;-75
2022/12/22 03:58:55;;;;;;;;;2.75;1.50;;;;;14.09;71.46;100550.19;2411875;28;46874;-75
2022/12/22 04:00:06;;;;;;;;;5.00;2.00;;;;;14.10;71.97;100554.56;2402234;28;45449;-75
2022/12/22 04:01:16;;;;;;;;;2.00;1.00;;;;;14.10;71.80;100558.03;2399005;28;46369;-75
2022/12/22 04:02:27;;;;;;;;;1.25;0.75;;;;;14.11;71.80;100548.31;2405811;28;44747;-76
2022/12/22 04:03:37;;;;;;;;;4.25;4.00;;;;;14.12;71.42;100565.91;2412665;28;46495;-76
2022/12/22 04:04:47;;;;;;;;;2.75;1.00;;;;;14.11;71.42;100559.75;2404079;28;45293;-76
2022/12/22 04:05:58;;;;;;;;;4.00;2.00;;;;;14.10;71.11;100565.97;2403314;28;46305;-76
2022/12/22 04:07:08;;;;;;;;;2.25;2.00;;;;;14.10;71.30;100554.56;2403397;28;45449;-76
2022/12/22 04:08:19;;;;;;;;;5.75;2.75;;;;;14.10;71.34;100552.75;2410152;28;46255;-75
2022/12/22 04:09:29;;;;;;;;;6.00;1.00;;;;;14.08;71.77;100538.75;2408411;28;44676;-76
2022/12/22 04:13:37;;;;;;;;;3.50;1.25;;;;;14.05;71.52;100546.88;2412748;28;45814;-75
2022/12/22 04:14:47;;;;;;;;;1.50;1.25;;;;;14.04;71.52;100545.13;2412838;28;44655;-76
2022/12/22 04:15:57;;;;;;;;;1.50;1.50;;;;;14.04;71.16;100553.06;2402249;28;46956;-76
2022/12/22 04:17:08;;;;;;;;;2.00;2.00;;;;;14.03;71.75;100552.22;2405412;28;45454;-76
2022/12/22 04:18:19;;;;;;;;;3.50;1.00;;;;;14.03;71.66;100561.91;2411402;28;47066;-76
2022/12/22 04:19:29;;;;;;;;;7.00;1.00;;;;;14.03;71.29;100573.34;2398365;28;45333;-76
2022/12/22 04:20:40;;;;;;;;;5.00;1.50;;;;;14.03;71.46;100564.56;2395788;28;46090;-76
2022/12/22 04:21:50;;;;;;;;;2.25;1.00;;;;;14.03;71.16;100577.78;2393181;28;45411;-76
2022/12/22 04:23:01;;;;;;;;;1.00;1.00;;;;;14.02;71.05;100578.72;2395847;28;45448;-75
2022/12/22 04:24:12;;;;;;;;;3.25;2.00;;;;;14.03;71.23;100572.50;2403310;28;45148;-75
2022/12/22 04:25:24;;;;;;;;;3.00;1.00;;;;;14.01;71.20;100569.94;2403258;28;46588;-75
2022/12/22 04:26:34;;;;;;;;;2.00;1.00;;;;;14.00;71.20;100567.38;2397511;28;45297;-76
2022/12/22 04:27:45;;;;;;;;;2.50;1.25;;;;;13.99;71.02;100557.72;2401177;28;45239;-75
2022/12/22 04:28:56;;;;;;;;;5.00;1.75;;;;;13.98;71.09;100570.06;2412845;28;45304;-75
2022/12/22 04:30:07;;;;;;;;;4.00;0.75;;;;;13.98;71.07;100572.72;2402291;28;45930;-75
2022/12/22 04:31:18;;;;;;;;;1.50;1.50;;;;;13.97;71.19;100581.59;2405190;28;45283;-75
2022/12/22 04:32:28;;;;;;;;;3.00;1.00;;;;;13.97;70.97;100593.94;2412030;28;46578;-75
2022/12/22 04:33:39;;;;;;;;;4.50;1.00;;;;;13.98;71.35;100593.84;2403257;28;44795;-75
2022/12/22 04:34:49;;;;;;;;;1.75;1.00;;;;;13.97;70.95;100601.88;2402249;28;48282;-75
2022/12/22 04:35:59;;;;;;;;;4.00;1.50;;;;;13.95;71.20;100608.06;2402449;28;44730;-76
2022/12/22 04:37:09;;;;;;;;;1.00;0.00;;;;;13.96;70.69;100611.59;2412380;28;45362;-76
2022/12/22 04:38:20;;;;;;;;;0.50;0.00;;;;;13.94;70.96;100614.31;2402526;28;45393;-75
2022/12/22 04:39:30;;;;;;;;;0.75;0.00;;;;;13.92;70.43;100602.09;2405191;28;45615;-75
2022/12/22 04:40:40;;;;;;;;;6.00;0.00;;;;;13.91;70.57;100610.94;2411864;28;45303;-75
2022/12/22 04:41:51;;;;;;;;;1.00;1.00;;;;;13.90;70.59;100623.28;2402745;28;45362;-75
2022/12/22 04:43:01;;;;;;;;;3.00;1.50;;;;;13.89;70.63;100612.81;2403137;28;45310;-75
2022/12/22 04:44:11;;;;;;;;;1.25;1.25;;;;;13.90;70.87;100611.91;2402981;28;46314;-75
2022/12/22 04:45:22;;;;;;;;;1.00;1.00;;;;;13.89;70.52;100620.75;2403303;28;45219;-76
2022/12/22 04:46:32;;;;;;;;;3.25;1.00;;;;;13.88;70.58;100632.25;2406282;28;45605;-76
2022/12/22 04:47:42;;;;;;;;;1.50;0.25;;;;;13.88;71.05;100634.91;2412085;28;45353;-76
2022/12/22 04:48:53;;;;;;;;;1.00;1.00;;;;;13.87;70.40;100630.53;2412587;28;45350;-75
2022/12/22 04:50:04;;;;;;;;;2.50;1.25;;;;;13.86;70.57;100628.81;2412571;28;45178;-75
2022/12/22 04:51:14;;;;;;;;;1.25;0.25;;;;;13.85;70.36;100646.47;2412454;28;45589;-75
2022/12/22 04:52:25;;;;;;;;;3.25;1.00;;;;;13.86;70.38;100639.38;2412527;28;45234;-75
2022/12/22 04:53:35;;;;;;;;;1.00;1.00;;;;;13.84;70.55;100660.59;2412599;28;46246;-75
2022/12/22 04:54:46;;;;;;;;;2.00;0.00;;;;;13.83;70.38;100659.72;2402304;28;45384;-75
2022/12/22 04:56:02;;;;;;;;;4.00;0.75;;;;;13.84;70.60;100660.59;2404716;28;48359;-75
2022/12/22 04:57:13;;;;;;;;;0.00;0.00;;;;;13.85;70.23;100659.69;2401986;28;44617;-75
2022/12/22 04:58:23;;;;;;;;;2.25;0.00;;;;;13.87;70.58;100660.47;2404605;28;45460;-75
2022/12/22 04:59:34;;;;;;;;;0.25;0.00;;;;;13.88;70.33;100670.06;2412645;28;45353;-76
2022/12/22 05:00:44;;;;;;;;;2.00;0.50;;;;;13.87;70.59;100660.47;2412340;28;45255;-76
2022/12/22 05:01:54;;;;;;;;;0.25;0.25;;;;;13.89;70.31;100671.81;2402117;28;45150;-76
2022/12/22 05:03:05;;;;;;;;;2.00;0.00;;;;;13.89;69.91;100678.88;2407594;28;45282;-76
2022/12/22 05:04:16;;;;;;;;;3.00;1.00;;;;;13.88;70.28;100683.28;2412595;28;44599;-76
2022/12/22 05:05:26;;;;;;;;;2.50;0.00;;;;;13.89;70.22;100682.38;2412468;28;46417;-76
2022/12/22 05:06:37;;;;;;;;;0.50;0.00;;;;;13.88;70.18;100688.56;2410800;28;45269;-76
2022/12/22 05:07:47;;;;;;;;;2.00;0.00;;;;;13.90;70.17;100693.81;2411552;28;46387;-76
2022/12/22 05:08:57;;;;;;;;;1.25;0.00;;;;;13.90;70.25;100697.28;2412634;28;45142;-75
2022/12/22 05:10:09;;;;;;;;;1.00;0.75;;;;;13.89;70.17;100707.94;2411248;28;46767;-75
2022/12/22 05:11:19;;;;;;;;;0.00;0.00;;;;;13.89;70.04;100705.28;2406611;28;45399;-75
2022/12/22 05:13:59;;;;;;;;;0.00;0.00;;;;;13.90;70.30;100709.66;2412510;28;45253;-75
2022/12/22 05:15:09;;;;;;;;;0.00;0.00;;;;;13.90;70.16;100707.84;2411391;28;46818;-75
2022/12/22 05:16:20;;;;;;;;;0.00;0.00;;;;;13.90;69.64;100702.56;2409975;28;45347;-76
2022/12/22 05:17:30;;;;;;;;;2.00;0.00;;;;;13.91;70.00;100711.34;2410547;28;47044;-76
2022/12/22 05:18:42;;;;;;;;;2.50;0.00;;;;;13.89;69.95;100716.72;2411695;28;45384;-76
2022/12/22 05:19:53;;;;;;;;;1.75;0.25;;;;;13.90;69.82;100717.56;2412200;28;46371;-76
2022/12/22 05:21:10;;;;;;;;;1.50;0.00;;;;;13.89;69.77;100729.06;2412383;28;45261;-76
2022/12/22 05:22:20;;;;;;;;;0.00;0.00;;;;;13.89;69.50;100729.94;2412359;28;45486;-76
2022/12/22 05:23:30;;;;;;;;;2.25;0.00;;;;;13.89;69.54;100727.28;2411425;28;45356;-76
2022/12/22 05:24:41;;;;;;;;;0.75;0.00;;;;;13.90;69.81;100733.44;2404551;28;46967;-76
2022/12/22 05:25:51;;;;;;;;;1.25;0.00;;;;;13.90;69.56;100718.41;2411807;28;44697;-76
2022/12/22 05:27:01;;;;;;;;;0.00;0.00;;;;;13.90;69.31;100722.88;2411385;28;45560;-76
2022/12/22 05:28:12;;;;;;;;;0.00;0.00;;;;;13.91;69.12;100724.56;2411803;28;45155;-75
2022/12/22 05:29:22;;;;;;;;;1.25;0.00;;;;;13.90;68.99;100728.97;2412368;28;45390;-75
2022/12/22 05:30:33;;;;;;;;;0.00;0.00;;;;;13.90;68.93;100723.69;2402840;28;45242;-75
2022/12/22 05:31:43;;;;;;;;;0.00;0.00;;;;;13.90;69.30;100734.25;2405678;28;46136;-75
2022/12/22 05:32:53;;;;;;;;;0.75;0.00;;;;;13.88;68.93;100728.19;2410338;28;44826;-76
2022/12/22 05:34:03;;;;;;;;;0.00;0.00;;;;;13.88;69.22;100727.38;2402789;28;45356;-76
2022/12/22 05:35:15;;;;;;;;;0.75;0.75;;;;;13.88;69.25;100733.47;2402059;28;45235;-76
2022/12/22 05:36:25;;;;;;;;;0.00;0.00;;;;;13.88;69.40;100724.72;2402052;28;45467;-76
2022/12/22 05:37:35;;;;;;;;;1.00;0.00;;;;;13.87;68.87;100734.44;2402878;28;45240;-76
2022/12/22 05:38:46;;;;;;;;;0.00;0.00;;;;;13.87;69.11;100734.44;2410743;28;46292;-76
2022/12/22 05:39:56;;;;;;;;;0.00;0.00;;;;;13.87;68.97;100741.50;2405805;28;45437;-76
2022/12/22 05:41:07;;;;;;;;;0.00;0.00;;;;;13.86;68.94;100743.28;2403596;28;47916;-76
2022/12/22 05:42:34;;;;;;;;;0.00;0.00;;;;;13.86;68.96;100743.28;2404386;28;45230;-76
2022/12/22 05:43:44;;;;;;;;;0.00;0.00;;;;;13.86;69.05;100748.56;2412005;28;45311;-76
2022/12/22 05:44:55;;;;;;;;;1.00;0.00;;;;;13.87;69.11;100752.06;2405428;28;45266;-76
2022/12/22 05:46:08;;;;;;;;;0.00;0.00;;;;;13.88;69.25;100757.25;2401528;28;47290;-76
2022/12/22 05:47:18;;;;;;;;;0.00;0.00;;;;;13.87;69.07;100758.22;2404866;28;45470;-76
2022/12/22 05:48:29;;;;;;;;;0.50;0.00;;;;;13.88;68.95;100759.91;2415362;28;45522;-76
2022/12/22 05:49:39;;;;;;;;;0.00;0.00;;;;;13.90;69.22;100763.31;2411453;28;44715;-75
2022/12/22 05:50:49;;;;;;;;;1.00;0.00;;;;;13.90;69.22;100768.59;2410670;28;45269;-75
2022/12/22 05:52:00;;;;;;;;;3.00;0.00;;;;;13.90;69.18;100771.25;2411118;28;45439;-76
2022/12/22 05:53:10;;;;;;;;;0.00;0.00;;;;;13.91;69.29;100778.25;2412048;28;46157;-75
2022/12/22 05:54:20;;;;;;;;;1.00;0.00;;;;;13.89;69.27;100764.28;2412165;28;45272;-76
2022/12/22 05:55:31;;;;;;;;;0.75;0.00;;;;;13.90;69.67;100775.69;2411371;28;47955;-76
2022/12/22 05:56:42;;;;;;;;;3.00;0.00;;;;;13.90;69.84;100781.81;2411585;28;45199;-76
2022/12/22 05:57:52;;;;;;;;;0.00;0.00;;;;;13.90;69.64;100787.09;2411687;28;46297;-76
2022/12/22 05:59:03;;;;;;;;;1.75;0.00;;;;;13.89;69.86;100782.75;2412402;28;44769;-76
2022/12/22 06:00:14;;;;;;;;;0.25;0.25;;;;;13.91;70.11;100787.97;2410871;28;45540;-76
2022/12/22 06:01:25;;;;;;;;;0.00;0.00;;;;;13.90;70.37;100781.00;2411584;28;44701;-76
2022/12/22 06:02:35;;;;;;;;;0.00;0.00;;;;;13.88;70.56;100778.41;2410499;28;45464;-76
2022/12/22 06:03:45;;;;;;;;;0.25;0.00;;;;;13.88;70.45;100780.22;2392577;28;44670;-76
2022/12/22 06:04:56;;;;;;;;;3.50;0.00;;;;;13.85;70.52;100778.56;2395155;28;45360;-76
2022/12/22 06:06:06;;;;;;;;;0.00;0.00;;;;;13.85;70.60;100783.84;2402764;28;45247;-76
2022/12/22 06:07:17;;;;;;;;;0.00;0.00;;;;;13.83;70.77;100786.53;2402641;28;45353;-76
2022/12/22 06:08:27;;;;;;;;;0.00;0.00;;;;;13.82;71.07;100784.84;2408514;28;45463;-75
2022/12/22 06:09:38;;;;;;;;;0.00;0.00;;;;;13.80;70.97;100781.38;2410188;28;45679;-76
2022/12/22 06:10:48;;;;;;;;;0.00;0.00;;;;;13.80;70.95;100788.47;2397366;28;45569;-76
2022/12/22 06:11:59;;;;;;;;;0.00;0.00;;;;;13.80;71.23;100789.31;2396955;28;47087;-76
2022/12/22 06:13:09;;;;;;;;;0.00;0.00;;;;;13.82;71.13;100799.84;2399977;28;44775;-76
2022/12/22 06:14:20;;;;;;;;;0.00;0.00;;;;;13.80;71.11;100793.75;2408410;28;45480;-76
2022/12/22 06:15:30;;;;;;;;;0.75;0.00;;;;;13.79;71.37;100794.69;2408523;28;45393;-76
2022/12/22 06:16:40;;;;;;;;;0.00;0.00;;;;;13.80;71.38;100801.69;2402201;28;45366;-76
2022/12/22 06:17:51;;;;;;;;;0.50;0.25;;;;;13.80;71.21;100815.72;2402153;28;44671;-76
2022/12/22 06:19:01;;;;;;;;;2.00;0.00;;;;;13.80;71.47;100813.09;2401986;28;45486;-76
2022/12/22 06:20:12;;;;;;;;;0.00;0.00;;;;;13.80;71.52;100814.91;2397334;28;44801;-76
2022/12/22 06:21:23;;;;;;;;;0.00;0.00;;;;;13.78;71.35;100814.94;2403778;28;45810;-76
2022/12/22 06:22:33;;;;;;;;;0.00;0.00;;;;;13.79;71.42;100810.53;2406186;28;45187;-76
2022/12/22 06:23:43;;;;;;;;;0.00;0.00;;;;;13.78;71.46;100816.75;2391894;28;48027;-76
2022/12/22 06:24:54;;;;;;;;;0.00;0.00;;;;;13.78;71.67;100822.03;2385247;28;45759;-76
2022/12/22 06:26:04;;;;;;;;;0.75;0.75;;;;;13.78;71.85;100808.84;2395661;28;45543;-76
2022/12/22 06:27:14;;;;;;;;;1.00;0.00;;;;;13.77;71.61;100809.75;2412684;28;44707;-76
2022/12/22 06:28:25;;;;;;;;;0.00;0.00;;;;;13.77;71.96;100817.66;2410296;28;45237;-76
2022/12/22 06:29:36;;;;;;;;;0.00;0.00;;;;;13.76;71.97;100814.16;2394315;28;44711;-76
2022/12/22 06:30:47;;;;;;;;;0.00;0.00;;;;;13.76;71.88;100816.81;2403380;28;45336;-76
2022/12/22 06:31:57;;;;;;;;;2.00;0.00;;;;;13.76;71.87;100819.44;2393512;28;45439;-76
2022/12/22 06:33:08;;;;;;;;;0.75;0.00;;;;;13.76;72.11;100816.81;2396310;28;45616;-76
2022/12/22 06:34:18;;;;;;;;;0.00;0.00;;;;;13.77;72.46;100817.66;2393574;28;45345;-76
2022/12/22 06:35:28;;;;;;;;;0.75;0.00;;;;;13.76;72.36;100814.16;2400405;28;46388;-76
2022/12/22 06:36:39;;;;;;;;;0.25;0.25;;;;;13.76;72.11;100800.09;2402693;28;45546;-76
2022/12/22 06:37:49;;;;;;;;;1.00;1.00;;;;;13.76;72.04;100821.22;2400078;28;46417;-76
2022/12/22 06:38:59;;;;;;;;;5.00;1.00;;;;;13.71;72.18;100814.38;2404109;28;45292;-76
2022/12/22 06:40:10;;;;;;;;;2.75;1.00;;;;;13.72;71.81;100820.53;2404130;28;46150;-76
2022/12/22 06:43:07;;;;;;;;;5.00;2.00;;;;;13.71;71.86;100830.22;2410612;28;45431;-76
2022/12/22 06:44:18;;;;;;;;;1.50;1.50;;;;;13.70;72.23;100839.06;2402086;28;44639;-76
2022/12/22 06:45:28;;;;;;;;;7.75;2.50;;;;;13.70;72.04;100846.16;2401898;28;46592;-76
2022/12/22 06:46:38;;;;;;;;;6.75;2.00;;;;;13.69;72.04;100852.34;2408724;28;45370;-76
2022/12/22 06:47:49;;;;;;;;;7.50;4.50;;;;;13.67;71.71;100852.44;2412359;28;46275;-76
2022/12/22 06:48:59;;;;;;;;;9.00;5.25;;;;;13.66;72.06;100850.69;2406344;28;45678;-76
2022/12/22 06:50:09;;;;;;;;;3.00;2.00;;;;;13.65;71.94;100851.63;2403387;28;46560;-76
2022/12/22 06:51:20;;;;;;;;;7.50;2.50;;;;;13.64;71.88;100851.69;2407251;28;45540;-76
2022/12/22 06:52:30;;;;;;;;;3.25;1.75;;;;;13.61;72.18;100860.59;2403454;28;45463;-76
2022/12/22 06:53:40;;;;;;;;;7.25;3.25;;;;;13.60;72.13;100858.91;2403665;28;45369;-76
2022/12/22 06:54:51;;;;;;;;;3.00;3.00;;;;;13.58;72.44;100866.88;2403449;28;45414;-76
2022/12/22 06:56:01;;;;;;;;;6.25;2.00;;;;;13.57;71.98;100864.31;2403579;28;45367;-76
2022/12/22 06:57:12;;;;;;;;;5.50;3.50;;;;;13.55;72.22;100871.41;2409475;28;46067;-76
2022/12/22 06:58:23;;;;;;;;;8.25;3.00;;;;;13.56;72.48;100874.00;2412502;28;44726;-76
2022/12/22 06:59:33;;;;;;;;;5.50;2.00;;;;;13.56;71.87;100874.00;2404287;28;45337;-76
2022/12/22 07:00:47;;;;;;;;;5.50;3.00;;;;;13.55;72.40;100879.34;2407582;28;45289;-76
2022/12/22 07:01:57;;;;;;;;;6.25;3.25;;;;;13.55;72.08;100876.69;2409496;28;45516;-76
2022/12/22 07:03:08;;;;;;;;;3.00;2.00;;;;;13.54;72.46;100874.97;2403355;28;44762;-76
2022/12/22 07:04:20;;;;;;;;;5.75;3.75;;;;;13.53;72.56;100868.81;2412525;28;45386;-76
2022/12/22 07:05:30;;;;;;;;;4.00;2.25;;;;;13.54;72.19;100870.56;2401245;28;45285;-76
2022/12/22 07:06:40;;;;;;;;;6.00;3.00;;;;;13.55;72.40;100872.28;2405249;28;46223;-76
2022/12/22 07:07:52;;;;;;;;;6.25;4.00;;;;;13.56;72.19;100867.84;2407981;28;45687;-76
2022/12/22 07:09:03;;;;;;;;;5.00;3.75;;;;;13.55;72.36;100871.41;2405087;28;45361;-75
2022/12/22 07:10:13;;;;;;;;;3.50;3.50;;;;;13.54;72.44;100864.41;2401304;28;45487;-76
2022/12/22 07:11:23;;;;;;;;;10.25;3.00;;;;;13.54;72.31;100864.41;2405902;28;46304;-75
2022/12/22 07:12:34;;;;;;;;;8.75;3.75;;;;;13.54;72.38;100875.84;2406528;28;45325;-75
2022/12/22 07:13:45;;;;;;;;;7.50;3.00;;;;;13.55;72.68;100879.34;2403567;28;45234;-75
2022/12/22 07:14:55;;;;;;;;;4.50;2.50;;;;;13.57;72.43;100874.88;2403996;28;45196;-75
2022/12/22 07:16:07;;;;;;;;;3.75;1.00;;;;;13.57;72.43;100880.16;2408613;28;45246;-75
2022/12/22 07:17:17;;;;;;;;;9.00;4.25;;;;;13.58;72.70;100881.88;2413456;28;45273;-75
2022/12/22 07:18:35;;;;;;;;;5.00;3.25;;;;;13.59;72.31;100883.59;2412396;28;47279;-75
2022/12/22 07:19:45;;;;;;;;;9.75;4.50;;;;;13.59;72.38;100888.88;2412876;28;45252;-75
2022/12/22 07:20:55;;;;;;;;;4.25;3.25;;;;;13.61;72.08;100900.22;2411357;28;45350;-75
2022/12/22 07:22:06;;;;;;;;;11.50;3.00;;;;;13.60;72.32;100902.03;2413355;28;45165;-75
2022/12/22 07:23:16;;;;;;;;;7.00;3.75;;;;;13.60;72.46;100904.66;2413018;28;45645;-75
2022/12/22 07:24:28;;;;;;;;;4.75;3.75;;;;;13.61;72.21;100902.88;2413281;28;44763;-75
2022/12/22 07:25:38;;;;;;;;;3.75;3.50;;;;;13.62;72.81;100909.88;2413267;28;45301;-75
2022/12/22 07:26:49;;;;;;;;;6.75;5.25;;;;;13.60;72.59;100904.66;2413278;28;44732;-75
2022/12/22 07:27:59;;;;;;;;;6.25;4.00;;;;;13.61;72.40;100902.88;2402774;28;46037;-75
2022/12/22 07:29:10;;;;;;;;;5.25;4.00;;;;;13.61;72.45;100905.50;2405992;28;45348;-75
2022/12/22 07:30:20;;;;;;;;;3.50;3.50;;;;;13.60;72.42;100909.09;2413221;28;46260;-75
2022/12/22 07:31:30;;;;;;;;;10.25;5.25;;;;;13.60;72.41;100909.09;2412117;28;44737;-75
2022/12/22 07:32:41;;;;;;;;;7.50;3.50;;;;;13.60;72.32;100902.03;2412909;28;45266;-75
2022/12/22 07:33:51;;;;;;;;;5.50;3.50;;;;;13.60;72.40;100909.94;2402883;28;45388;-75
2022/12/22 07:35:01;;;;;;;;;11.25;3.75;;;;;13.60;72.40;100909.09;2405773;28;46262;-75
2022/12/22 07:36:15;;;;;;;;;12.25;7.50;;;;;13.60;72.22;100902.03;2402738;28;45435;-75
2022/12/22 07:37:25;;;;;;;;;5.00;4.25;;;;;13.59;72.60;100904.72;2404814;28;46330;-75
2022/12/22 07:38:38;;;;;;;;;5.50;3.25;;;;;13.57;72.24;100910.06;2406686;28;45242;-75
2022/12/22 07:39:48;;;;;;;;;8.50;3.25;;;;;13.57;72.29;100909.22;2403599;28;45412;-75
2022/12/22 07:40:59;;;;;;;;;8.25;6.00;;;;;13.57;72.53;100915.34;2403675;28;44684;-75
2022/12/22 07:43:41;;;;;;;;;7.75;4.75;;;;;13.55;72.62;100911.03;2411968;28;45240;-75
2022/12/22 07:44:51;;;;;;;;;8.25;1.00;;;;;13.56;72.51;100916.25;2412725;28;45378;-75
2022/12/22 07:46:05;;;;;;;;;10.50;6.00;;;;;13.57;72.82;100922.41;2402528;28;44730;-75
2022/12/22 07:47:15;;;;;;;;;7.50;4.50;;;;;13.56;72.42;100932.09;2401364;28;46964;-75
2022/12/22 07:51:23;;;;;;;;;12.75;7.00;;;;;13.56;72.37;100925.94;2413130;28;45274;-75
2022/12/22 07:52:34;;;;;;;;;9.50;7.00;;;;;13.55;72.58;100925.09;2412776;28;46538;-75
2022/12/22 07:53:44;;;;;;;;;9.25;4.50;;;;;13.55;72.16;100924.22;2402715;28;44706;-75
2022/12/22 07:54:54;;;;;;;;;7.00;3.50;;;;;13.55;72.19;100919.81;2405343;28;45289;-75
2022/12/22 07:56:05;;;;;;;;;8.00;4.00;;;;;13.55;72.36;100921.59;2412315;28;45443;-75
2022/12/22 07:57:15;;;;;;;;;4.00;3.00;;;;;13.56;72.60;100918.91;2409381;28;46443;-75
2022/12/22 07:58:27;;;;;;;;;8.00;5.00;;;;;13.56;72.41;100916.25;2407904;28;45227;-75
2022/12/22 07:59:37;;;;;;;;;6.00;4.00;;;;;13.57;72.25;100914.50;2393233;28;48247;-75
2022/12/22 08:00:47;;;;;;;;;8.50;4.75;;;;;13.57;72.46;100917.13;2392424;28;44696;-76
2022/12/22 08:01:58;;;;;;;;;6.75;4.75;;;;;13.56;72.56;100915.38;2399111;28;45616;-76
2022/12/22 08:03:08;;;;;;;;;11.75;4.75;;;;;13.57;72.25;100917.13;2398839;28;45445;-76
2022/12/22 08:04:18;;;;;;;;;8.00;7.00;;;;;13.55;72.36;100916.31;2402542;28;47156;-76
2022/12/22 08:05:29;;;;;;;;;14.50;7.25;;;;;13.55;72.23;100924.22;2402819;28;45420;-75
2022/12/22 08:06:40;;;;;;;;;13.25;7.25;;;;;13.56;71.91;100918.00;2406309;28;45331;-75
2022/12/22 08:07:51;;;;;;;;;14.25;6.00;;;;;13.54;72.28;100920.72;2403806;28;45313;-75
2022/12/22 08:09:03;;;;;;;;;15.50;4.25;;;;;13.55;72.29;100924.22;2402509;28;47296;-75
2022/12/22 08:10:14;;;;;;;;;13.75;7.75;;;;;13.56;72.09;100929.47;2406551;28;45259;-75
2022/12/22 08:11:24;;;;;;;;;10.50;6.00;;;;;13.55;72.07;100930.38;2411935;28;48260;-75
2022/12/22 08:12:34;;;;;;;;;13.00;4.00;;;;;13.56;71.99;100931.22;2412134;28;44648;-75
2022/12/22 08:13:45;;;;;;;;;6.00;2.00;;;;;13.56;72.08;100929.47;2403347;28;45234;-76
2022/12/22 08:14:55;;;;;;;;;14.50;6.50;;;;;13.56;72.18;100936.50;2403306;28;45276;-76
2022/12/22 08:16:09;;;;;;;;;11.50;7.75;;;;;13.55;72.10;100935.66;2403073;28;45308;-76
2022/12/22 08:17:19;;;;;;;;;5.00;4.50;;;;;13.54;71.64;100938.34;2412593;28;45392;-76
2022/12/22 08:18:30;;;;;;;;;10.50;7.50;;;;;13.55;71.74;100938.31;2412631;28;45371;-75
2022/12/22 08:19:40;;;;;;;;;11.25;8.75;;;;;13.53;72.18;100948.03;2412768;28;45360;-75
2022/12/22 08:20:51;;;;;;;;;10.50;6.75;;;;;13.54;72.10;100941.84;2412644;28;45526;-75
2022/12/22 08:22:01;;;;;;;;;8.00;6.25;;;;;13.54;72.19;100944.50;2412808;28;45296;-75
2022/12/22 08:23:12;;;;;;;;;7.00;1.75;;;;;13.53;71.71;100947.22;2412650;28;46196;-75
2022/12/22 08:24:22;;;;;;;;;9.50;3.00;;;;;13.53;71.94;100949.84;2411938;28;45727;-75
2022/12/22 08:25:33;;;;;;;;;9.25;4.75;;;;;13.54;71.82;100947.13;2412701;28;46437;-75
2022/12/22 08:26:48;;;;;;;;;15.25;8.75;;;;;13.55;71.68;100948.88;2412852;28;45238;-75
2022/12/22 08:27:58;;;;;;;;;10.00;8.50;;;;;13.55;71.58;100951.50;2405963;28;45510;-75
2022/12/22 08:29:14;;;;;;;;;6.50;5.75;;;;;13.56;71.99;100952.34;2402366;28;45365;-75
2022/12/22 08:30:26;;;;;;;;;16.75;9.25;;;;;13.57;71.70;100954.09;2402478;28;45269;-75
2022/12/22 08:31:38;;;;;;;;;13.00;8.50;;;;;13.57;71.89;100954.97;2402508;28;45306;-75
2022/12/22 08:32:49;;;;;;;;;10.25;8.25;;;;;13.58;71.68;100953.19;2404156;28;46214;-75
2022/12/22 08:34:04;;;;;;;;;10.50;5.50;;;;;13.59;72.00;100954.91;2411916;28;45233;-75
2022/12/22 08:35:15;;;;;;;;;14.25;8.75;;;;;13.60;72.12;100961.91;2411586;28;46679;-75
2022/12/22 08:36:26;;;;;;;;;13.75;8.00;;;;;13.60;71.84;100961.91;2412712;28;45276;-75
2022/12/22 08:37:40;;;;;;;;;13.00;8.00;;;;;13.61;71.64;100959.19;2412528;28;46375;-75
2022/12/22 08:38:51;;;;;;;;;10.00;6.00;;;;;13.61;71.64;100956.53;2411859;28;45318;-75
2022/12/22 08:40:05;;;;;;;;;11.25;8.00;;;;;13.63;71.89;100958.28;2412051;28;45464;-75
2022/12/22 08:41:48;;;;;;;;;11.00;6.50;;;;;13.65;71.81;100972.28;2412328;28;45249;-75
2022/12/22 08:42:49;;;;;;;;;13.25;8.50;;;;;13.65;71.89;100953.78;2411196;28;45456;-75
2022/12/22 08:44:00;;;;;;;;;17.00;10.25;;;;;13.65;71.67;100957.28;2407395;28;45261;-75
2022/12/22 08:45:10;;;;;;;;;17.00;7.25;;;;;13.66;71.80;100953.69;2402977;28;46479;-75
2022/12/22 08:46:20;;;;;;;;;14.00;8.50;;;;;13.67;71.64;100955.44;2403021;28;45330;-75
2022/12/22 08:47:31;;;;;;;;;12.50;7.50;;;;;13.69;71.63;100950.06;2402799;28;46102;-75
2022/12/22 08:48:41;;;;;;;;;14.75;9.25;;;;;13.69;72.13;100945.66;2403133;28;45642;-75
2022/12/22 08:49:51;;;;;;;;;10.75;9.00;;;;;13.69;71.61;100943.00;2411443;28;45309;-75
2022/12/22 08:51:02;;;;;;;;;12.00;8.75;;;;;13.70;72.11;100944.72;2412262;28;44616;-75
2022/12/22 08:52:12;;;;;;;;;10.50;7.50;;;;;13.72;71.94;100948.19;2412501;28;46536;-75
2022/12/22 08:53:23;;;;;;;;;18.00;7.75;;;;;13.73;71.88;100949.00;2405258;28;45275;-75
2022/12/22 08:54:33;;;;;;;;;13.75;8.50;;;;;13.73;71.65;100957.81;2403401;28;45545;-75
2022/12/22 08:55:54;;;;;;;;;12.00;8.00;;;;;13.76;71.81;100954.16;2412693;28;45253;-75
2022/12/22 08:57:04;;;;;;;;;15.00;7.00;;;;;13.77;71.66;100947.13;2411550;28;48383;-75
2022/12/22 08:58:14;;;;;;;;;8.75;5.50;;;;;13.78;71.57;100951.47;2404834;28;45387;-75
2022/12/22 08:59:25;;;;;;;;;13.25;8.50;;;;;13.79;71.71;100947.91;2411551;28;45726;-75
2022/12/22 09:00:35;;;;;;;;;11.75;8.50;;;;;13.80;71.64;100949.63;2411615;28;45274;-75
2022/12/22 09:01:49;;;;;;;;;11.25;8.00;;;;;13.80;71.25;100942.53;2403644;28;46289;-75
2022/12/22 09:02:59;;;;;;;;;8.50;7.00;;;;;13.80;71.26;100941.69;2401850;28;45377;-75
2022/12/22 09:04:14;;;;;;;;;8.25;3.50;;;;;13.80;71.59;100947.81;2409393;28;46248;-75
2022/12/22 09:05:24;;;;;;;;;11.25;5.50;;;;;13.81;71.32;100940.75;2410211;28;45412;-76
2022/12/22 09:06:35;;;;;;;;;9.75;8.25;;;;;13.81;71.43;100938.13;2411982;28;46599;-75
2022/12/22 09:07:46;;;;;;;;;14.25;7.00;;;;;13.81;71.08;100943.41;2410107;28;45458;-75
2022/12/22 09:08:58;;;;;;;;;9.50;5.25;;;;;13.81;71.23;100946.03;2412497;28;46171;-75
2022/12/22 09:10:09;;;;;;;;;11.00;8.75;;;;;13.80;71.14;100944.34;2404794;28;44746;-75